Terminal Aerodrome Forecast
Issued by NWS

Home | Current Version | Previous Version | Text Only | Print | Product List | Glossary On
Versions: 1 2 3 4 5 6 7 8 9 10 11 12 13
000
FTUS42 KMLB 041510 AAA
TAFSFB
TAF AMD
KSFB 041510Z 0415/0512 08016G21KT P6SM FEW045 BKN060
     FM050000 07010KT P6SM FEW060 SCT250=

USA.gov is the U.S. government's official web portal to all federal, state and local government web resources and services.